This is the latest recevied weather packets stored in our database for station/object KJ6MC. If no packets are shown the sender has not sent any weather packets the latest 1 day(s).
| Time | Temp. | Humidity | Pressure | Rain* | Wind** | Luminosity | Snow |
|---|---|---|---|---|---|---|---|
| 1778090911 | 20.56° C | 67% | 1020.1 hPa | 0 mm | - | - | - |
| 1778090854 | 20.56° C | 67% | 1020.1 hPa | 0 mm | - | - | - |
| 1778090364 | 20° C | 70% | 1020.2 hPa | 0 mm | - | - | - |
| 1778089993 | 19.44° C | 72% | 1020.2 hPa | 0 mm | - | - | - |
| 1778089870 | 19.44° C | 72% | 1020.2 hPa | 0 mm | - | - | - |
| 1778089686 | 18.89° C | 72% | 1020.2 hPa | 0 mm | - | - | - |
| 1778089504 | 18.89° C | 72% | 1020.1 hPa | 0 mm | - | - | - |
| 1778089442 | 18.89° C | 72% | 1020.2 hPa | 0 mm | - | - | - |
| 1778089378 | 18.89° C | 71% | 1020.2 hPa | 0 mm | - | - | - |
| 1778089256 | 18.89° C | 72% | 1020.1 hPa | 0 mm | - | - | - |
| 1778089195 | 18.89° C | 72% | 1020.2 hPa | 0 mm | - | - | - |
| 1778089070 | 18.33° C | 72% | 1020.2 hPa | 0 mm | - | - | - |
| 1778088836 | 18.33° C | 72% | 1020.2 hPa | 0 mm | - | - | - |
| 1778088642 | 18.89° C | 71% | 1020.3 hPa | 0 mm | - | - | - |
| 1778088273 | 18.33° C | 75% | 1020.2 hPa | 0 mm | - | - | - |
| 1778088213 | 18.33° C | 75% | 1020.2 hPa | 0 mm | - | - | - |
| 1778087988 | 17.78° C | 75% | 1020.2 hPa | 0 mm | - | - | - |
| 1778087536 | 17.22° C | 76% | 1020.2 hPa | 0 mm | - | - | - |
| 1778087474 | 17.22° C | 76% | 1020.2 hPa | 0 mm | - | - | - |
| 1778087414 | 17.22° C | 76% | 1020.2 hPa | 0 mm | - | - | - |
| 1778087291 | 17.22° C | 76% | 1020.3 hPa | 0 mm | - | - | - |
| 1778087166 | 17.22° C | 75% | 1020.3 hPa | 0 mm | - | - | - |
| 1778087106 | 17.22° C | 76% | 1020.3 hPa | 0 mm | - | - | - |
| 1778086860 | 17.22° C | 77% | 1020.3 hPa | 0 mm | - | - | - |
| 1778086737 | 17.22° C | 78% | 1020.2 hPa | 0 mm | - | - | - |
* Rain latest hour (hover to see other rain measurements)
** Current wind speed in m/s (hover to see current wind gust speed)